ACA1214 CYYZ-KMIA
Flight info
| Callsign | ACA1214 |
|---|---|
| Flight time | 2h 43m |
| Altitude | 37000 |
| Route | RIGUS5 PSB J61 EMI/N0481F360 Q119 SHTGN/N0481F380 Q119 SCOOB DCT EARZZ DCT SKARP Y313 HOAGG BNFSH3 |
| Aircraft | B77W/H-SDE1E2E3FGHIJ2J3J4J5M1RWXY/LB1D1 |
Departure
| Time | 2026-05-04 18:16 |
|---|---|
| Airport | Toronto Pearson International Airport (CYYZ) |
Arrival
| Time | 2026-05-04 20:59 |
|---|---|
| Airport | Miami International Airport (KMIA) |
| Time | Latitude | Longitude | Altitude | Speed | Heading |
|---|---|---|---|---|---|
| 2026-05-04 18:07 | 43.67550 | -79.60903 | 549 ft | 0 kts | 230° |
| 2026-05-04 18:08 | 43.67549 | -79.60905 | 549 ft | 1 kts | 230° |
| 2026-05-04 18:08 | 43.67530 | -79.60938 | 548 ft | 7 kts | 235° |
| 2026-05-04 18:08 | 43.67491 | -79.61026 | 547 ft | 13 kts | 248° |
| 2026-05-04 18:08 | 43.67475 | -79.61166 | 548 ft | 14 kts | 278° |
| 2026-05-04 18:09 | 43.67528 | -79.61391 | 551 ft | 8 kts | 309° |
| 2026-05-04 18:09 | 43.67564 | -79.61451 | 555 ft | 1 kts | 310° |
| 2026-05-04 18:10 | 43.67567 | -79.61455 | 555 ft | 0 kts | 310° |
| 2026-05-04 18:10 | 43.67575 | -79.61468 | 556 ft | 2 kts | 310° |
| 2026-05-04 18:10 | 43.67595 | -79.61502 | 556 ft | 7 kts | 310° |
| 2026-05-04 18:10 | 43.67640 | -79.61585 | 556 ft | 13 kts | 292° |
| 2026-05-04 18:11 | 43.67641 | -79.61732 | 557 ft | 17 kts | 300° |
| 2026-05-04 18:11 | 43.67733 | -79.61860 | 556 ft | 20 kts | 315° |
| 2026-05-04 18:11 | 43.67847 | -79.62009 | 557 ft | 24 kts | 319° |
| 2026-05-04 18:11 | 43.68001 | -79.62142 | 557 ft | 26 kts | 319° |
| 2026-05-04 18:12 | 43.68134 | -79.62325 | 557 ft | 25 kts | 317° |
| 2026-05-04 18:12 | 43.68263 | -79.62487 | 557 ft | 26 kts | 320° |
| 2026-05-04 18:12 | 43.68391 | -79.62647 | 557 ft | 23 kts | 317° |
| 2026-05-04 18:12 | 43.68518 | -79.62807 | 557 ft | 25 kts | 318° |
| 2026-05-04 18:13 | 43.68652 | -79.62981 | 560 ft | 26 kts | 316° |
| 2026-05-04 18:13 | 43.68787 | -79.63164 | 560 ft | 28 kts | 315° |
| 2026-05-04 18:13 | 43.69044 | -79.63496 | 563 ft | 14 kts | 325° |
| 2026-05-04 18:14 | 43.69125 | -79.63490 | 563 ft | 9 kts | 32° |
| 2026-05-04 18:14 | 43.69167 | -79.63457 | 563 ft | 7 kts | 27° |
| 2026-05-04 18:14 | 43.69225 | -79.63430 | 562 ft | 10 kts | 11° |
| 2026-05-04 18:15 | 43.69384 | -79.63474 | 562 ft | 12 kts | 305° |
| 2026-05-04 18:15 | 43.69298 | -79.63670 | 564 ft | 29 kts | 226° |
| 2026-05-04 18:15 | 43.68965 | -79.64146 | 561 ft | 106 kts | 227° |
| 2026-05-04 18:16 | 43.68301 | -79.65119 | 574 ft | 168 kts | 223° |
| 2026-05-04 18:16 | 43.67485 | -79.66307 | 1310 ft | 171 kts | 227° |
| 2026-05-04 18:16 | 43.66774 | -79.67558 | 2245 ft | 162 kts | 233° |
| 2026-05-04 18:17 | 43.65472 | -79.70149 | 3136 ft | 182 kts | 233° |
| 2026-05-04 18:17 | 43.64698 | -79.71652 | 3520 ft | 197 kts | 232° |
| 2026-05-04 18:17 | 43.62352 | -79.73219 | 4855 ft | 208 kts | 185° |
| 2026-05-04 18:18 | 43.60842 | -79.72920 | 5298 ft | 227 kts | 176° |
| 2026-05-04 18:18 | 43.59248 | -79.72497 | 5752 ft | 242 kts | 175° |
| 2026-05-04 18:18 | 43.57542 | -79.72034 | 6123 ft | 260 kts | 175° |
| 2026-05-04 18:18 | 43.55713 | -79.71543 | 6736 ft | 269 kts | 175° |
| 2026-05-04 18:19 | 43.52008 | -79.70544 | 8148 ft | 278 kts | 175° |
| 2026-05-04 18:19 | 43.50091 | -79.70026 | 8865 ft | 282 kts | 175° |
| 2026-05-04 18:19 | 43.48166 | -79.69506 | 9514 ft | 287 kts | 174° |
| 2026-05-04 18:20 | 43.46195 | -79.68973 | 10177 ft | 292 kts | 174° |
| 2026-05-04 18:20 | 43.44137 | -79.68420 | 10520 ft | 310 kts | 174° |
| 2026-05-04 18:20 | 43.41939 | -79.67866 | 10756 ft | 330 kts | 178° |
| 2026-05-04 18:20 | 43.39590 | -79.67703 | 11041 ft | 347 kts | 184° |
| 2026-05-04 18:21 | 43.37080 | -79.67645 | 11368 ft | 366 kts | 183° |
| 2026-05-04 18:21 | 43.34483 | -79.67591 | 11772 ft | 383 kts | 183° |
| 2026-05-04 18:21 | 43.31814 | -79.67532 | 12529 ft | 390 kts | 183° |
| 2026-05-04 18:21 | 43.29091 | -79.67469 | 13373 ft | 397 kts | 183° |
| 2026-05-04 18:22 | 43.26286 | -79.67405 | 14292 ft | 403 kts | 183° |
| 2026-05-04 18:22 | 43.23476 | -79.67343 | 15265 ft | 408 kts | 184° |
| 2026-05-04 18:22 | 43.20653 | -79.67303 | 16285 ft | 412 kts | 184° |
| 2026-05-04 18:22 | 43.17747 | -79.67266 | 17257 ft | 417 kts | 184° |
| 2026-05-04 18:23 | 43.14837 | -79.67227 | 18225 ft | 422 kts | 184° |
| 2026-05-04 18:23 | 43.11879 | -79.67188 | 19152 ft | 428 kts | 184° |
| 2026-05-04 18:23 | 43.08888 | -79.67149 | 19999 ft | 435 kts | 184° |
| 2026-05-04 18:23 | 43.05847 | -79.67108 | 20876 ft | 441 kts | 184° |
| 2026-05-04 18:24 | 43.02776 | -79.67066 | 21749 ft | 446 kts | 184° |
| 2026-05-04 18:24 | 42.99663 | -79.67024 | 22595 ft | 452 kts | 185° |
| 2026-05-04 18:24 | 42.96500 | -79.66981 | 23425 ft | 457 kts | 185° |
| 2026-05-04 18:24 | 42.93295 | -79.66938 | 24166 ft | 464 kts | 185° |
| 2026-05-04 18:25 | 42.90049 | -79.66894 | 24921 ft | 470 kts | 185° |
| 2026-05-04 18:25 | 42.86772 | -79.66858 | 25592 ft | 475 kts | 186° |
| 2026-05-04 18:25 | 42.83453 | -79.67112 | 26244 ft | 479 kts | 189° |
| 2026-05-04 18:25 | 42.80115 | -79.67476 | 26903 ft | 485 kts | 190° |
| 2026-05-04 18:26 | 42.76729 | -79.67850 | 27585 ft | 490 kts | 189° |
| 2026-05-04 18:26 | 42.73330 | -79.68224 | 28280 ft | 494 kts | 189° |
| 2026-05-04 18:26 | 42.69859 | -79.68604 | 28915 ft | 500 kts | 189° |
| 2026-05-04 18:26 | 42.66429 | -79.68978 | 29715 ft | 501 kts | 189° |
| 2026-05-04 18:27 | 42.62955 | -79.69354 | 30753 ft | 497 kts | 189° |
| 2026-05-04 18:27 | 42.59541 | -79.69724 | 31647 ft | 495 kts | 189° |
| 2026-05-04 18:27 | 42.56072 | -79.70100 | 32239 ft | 498 kts | 189° |
| 2026-05-04 18:27 | 42.52580 | -79.70479 | 32829 ft | 500 kts | 189° |
| 2026-05-04 18:28 | 42.49096 | -79.70856 | 33445 ft | 501 kts | 189° |
| 2026-05-04 18:28 | 42.45604 | -79.71233 | 34078 ft | 501 kts | 189° |
| 2026-05-04 18:28 | 42.42126 | -79.71607 | 34629 ft | 501 kts | 189° |
| 2026-05-04 18:28 | 42.38600 | -79.71738 | 35084 ft | 508 kts | 181° |
| 2026-05-04 18:29 | 42.35103 | -79.71168 | 35487 ft | 513 kts | 172° |
| 2026-05-04 18:29 | 42.31652 | -79.69884 | 35982 ft | 514 kts | 162° |
| 2026-05-04 18:29 | 42.28362 | -79.67935 | 36411 ft | 516 kts | 154° |
| 2026-05-04 18:29 | 42.25329 | -79.65387 | 36680 ft | 519 kts | 145° |
| 2026-05-04 18:30 | 42.19949 | -79.58808 | 36784 ft | 524 kts | 136° |
| 2026-05-04 18:30 | 42.17351 | -79.55353 | 36797 ft | 524 kts | 136° |
| 2026-05-04 18:31 | 42.12145 | -79.48534 | 36803 ft | 524 kts | 136° |
| 2026-05-04 18:31 | 42.06905 | -79.41773 | 36814 ft | 522 kts | 137° |
| 2026-05-04 18:32 | 42.01630 | -79.35034 | 36830 ft | 523 kts | 137° |
| 2026-05-04 18:32 | 41.96334 | -79.28313 | 36818 ft | 523 kts | 137° |
| 2026-05-04 18:33 | 41.91034 | -79.21619 | 36818 ft | 523 kts | 138° |
| 2026-05-04 18:33 | 41.85720 | -79.14932 | 36810 ft | 522 kts | 138° |
| 2026-05-04 18:34 | 41.80428 | -79.08293 | 36800 ft | 523 kts | 137° |
| 2026-05-04 18:34 | 41.75088 | -79.01613 | 36815 ft | 522 kts | 137° |
| 2026-05-04 18:35 | 41.69771 | -78.94978 | 36814 ft | 524 kts | 137° |
| 2026-05-04 18:35 | 41.64465 | -78.88376 | 36818 ft | 522 kts | 137° |
| 2026-05-04 18:36 | 41.59115 | -78.81733 | 36835 ft | 523 kts | 137° |
| 2026-05-04 18:36 | 41.53801 | -78.75151 | 36831 ft | 523 kts | 137° |
| 2026-05-04 18:37 | 41.48455 | -78.68546 | 36831 ft | 524 kts | 137° |
| 2026-05-04 18:37 | 41.43101 | -78.61945 | 36840 ft | 523 kts | 137° |
| 2026-05-04 18:38 | 41.37778 | -78.55399 | 36847 ft | 522 kts | 137° |
| 2026-05-04 18:38 | 41.32404 | -78.48806 | 36848 ft | 523 kts | 137° |
| 2026-05-04 18:39 | 41.27064 | -78.42268 | 36858 ft | 524 kts | 137° |
| 2026-05-04 18:39 | 41.21724 | -78.35748 | 36864 ft | 523 kts | 137° |
| 2026-05-04 18:40 | 41.16331 | -78.29176 | 36863 ft | 524 kts | 138° |
| 2026-05-04 18:40 | 41.10997 | -78.22694 | 36859 ft | 523 kts | 138° |
| 2026-05-04 18:41 | 41.05610 | -78.16161 | 36862 ft | 525 kts | 138° |
| 2026-05-04 18:41 | 41.00253 | -78.09679 | 36857 ft | 523 kts | 138° |
| 2026-05-04 18:42 | 40.94860 | -78.03168 | 36865 ft | 523 kts | 138° |
| 2026-05-04 18:42 | 40.89038 | -77.97493 | 36873 ft | 521 kts | 152° |
| 2026-05-04 18:43 | 40.82720 | -77.92814 | 36856 ft | 518 kts | 153° |
| 2026-05-04 18:43 | 40.76427 | -77.88213 | 36867 ft | 519 kts | 153° |
| 2026-05-04 18:44 | 40.70134 | -77.83631 | 36887 ft | 519 kts | 153° |
| 2026-05-04 18:44 | 40.63813 | -77.79043 | 36882 ft | 516 kts | 153° |
| 2026-05-04 18:45 | 40.57510 | -77.74481 | 36873 ft | 518 kts | 153° |
| 2026-05-04 18:45 | 40.51221 | -77.69940 | 36869 ft | 516 kts | 153° |
| 2026-05-04 18:46 | 40.44945 | -77.65419 | 36882 ft | 515 kts | 153° |
| 2026-05-04 18:46 | 40.38670 | -77.60909 | 36895 ft | 515 kts | 153° |
| 2026-05-04 18:47 | 40.32392 | -77.56407 | 36872 ft | 515 kts | 153° |
| 2026-05-04 18:47 | 40.26111 | -77.51912 | 36888 ft | 513 kts | 153° |
| 2026-05-04 18:48 | 40.19851 | -77.47443 | 36901 ft | 514 kts | 153° |
| 2026-05-04 18:48 | 40.13592 | -77.42982 | 36904 ft | 512 kts | 153° |
| 2026-05-04 18:49 | 40.07349 | -77.38544 | 36886 ft | 511 kts | 153° |
| 2026-05-04 18:49 | 40.01109 | -77.34116 | 36887 ft | 510 kts | 153° |
| 2026-05-04 18:50 | 39.94821 | -77.29665 | 36894 ft | 509 kts | 153° |
| 2026-05-04 18:50 | 39.88608 | -77.25275 | 36892 ft | 510 kts | 154° |
| 2026-05-04 18:51 | 39.82301 | -77.20830 | 36896 ft | 510 kts | 154° |
| 2026-05-04 18:51 | 39.76070 | -77.16446 | 36899 ft | 510 kts | 154° |
| 2026-05-04 18:52 | 39.69791 | -77.12038 | 36912 ft | 509 kts | 154° |
| 2026-05-04 18:52 | 39.63565 | -77.07677 | 36931 ft | 508 kts | 154° |
| 2026-05-04 18:53 | 39.57315 | -77.03307 | 36936 ft | 508 kts | 154° |
| 2026-05-04 18:53 | 39.51021 | -76.99120 | 36938 ft | 506 kts | 161° |
| 2026-05-04 18:54 | 39.44276 | -76.96913 | 36943 ft | 498 kts | 175° |
| 2026-05-04 18:54 | 39.37421 | -76.95602 | 36939 ft | 498 kts | 175° |
| 2026-05-04 18:55 | 39.30570 | -76.94314 | 36941 ft | 496 kts | 175° |
| 2026-05-04 18:55 | 39.20291 | -76.92390 | 36948 ft | 496 kts | 176° |
| 2026-05-04 18:56 | 39.13509 | -76.91125 | 36948 ft | 495 kts | 176° |
| 2026-05-04 18:56 | 39.06676 | -76.89854 | 36952 ft | 492 kts | 176° |
| 2026-05-04 18:57 | 38.99834 | -76.88585 | 36947 ft | 494 kts | 176° |
| 2026-05-04 18:57 | 38.93075 | -76.87332 | 36947 ft | 494 kts | 176° |
| 2026-05-04 18:58 | 38.86234 | -76.86068 | 36945 ft | 492 kts | 176° |
| 2026-05-04 18:58 | 38.79399 | -76.84808 | 36951 ft | 494 kts | 176° |
| 2026-05-04 18:59 | 38.72604 | -76.83556 | 36951 ft | 494 kts | 176° |
| 2026-05-04 18:59 | 38.65810 | -76.82307 | 36956 ft | 494 kts | 176° |
| 2026-05-04 19:00 | 38.59010 | -76.81061 | 36948 ft | 494 kts | 176° |
| 2026-05-04 19:00 | 38.52129 | -76.79801 | 36933 ft | 494 kts | 176° |
| 2026-05-04 19:01 | 38.45358 | -76.78564 | 36937 ft | 494 kts | 176° |
| 2026-05-04 19:01 | 38.38544 | -76.77322 | 36943 ft | 495 kts | 176° |
| 2026-05-04 19:02 | 38.31690 | -76.76074 | 36955 ft | 495 kts | 177° |
| 2026-05-04 19:02 | 38.24884 | -76.74837 | 36969 ft | 494 kts | 177° |
| 2026-05-04 19:03 | 38.18104 | -76.73608 | 36933 ft | 493 kts | 177° |
| 2026-05-04 19:03 | 38.11283 | -76.72373 | 36947 ft | 495 kts | 177° |
| 2026-05-04 19:04 | 38.04433 | -76.71137 | 36978 ft | 495 kts | 177° |
| 2026-05-04 19:04 | 37.97576 | -76.69900 | 36965 ft | 494 kts | 177° |
| 2026-05-04 19:05 | 37.90788 | -76.68678 | 36986 ft | 494 kts | 177° |
| 2026-05-04 19:05 | 37.83976 | -76.67455 | 36967 ft | 495 kts | 177° |
| 2026-05-04 19:06 | 37.77179 | -76.66236 | 36993 ft | 494 kts | 177° |
| 2026-05-04 19:06 | 37.70382 | -76.65018 | 36984 ft | 490 kts | 178° |
| 2026-05-04 19:07 | 37.63616 | -76.63811 | 36990 ft | 490 kts | 178° |
| 2026-05-04 19:07 | 37.56872 | -76.63387 | 36967 ft | 478 kts | 191° |
| 2026-05-04 19:08 | 37.50284 | -76.64252 | 36977 ft | 477 kts | 193° |
| 2026-05-04 19:08 | 37.43693 | -76.65154 | 36976 ft | 476 kts | 193° |
| 2026-05-04 19:09 | 37.37072 | -76.66058 | 36985 ft | 475 kts | 193° |
| 2026-05-04 19:09 | 37.30574 | -76.66943 | 36988 ft | 472 kts | 193° |
| 2026-05-04 19:10 | 37.24021 | -76.67836 | 36988 ft | 471 kts | 193° |
| 2026-05-04 19:10 | 37.17522 | -76.68720 | 36994 ft | 471 kts | 193° |
| 2026-05-04 19:11 | 37.10961 | -76.69610 | 36994 ft | 470 kts | 193° |
| 2026-05-04 19:11 | 37.04488 | -76.70486 | 36978 ft | 470 kts | 193° |
| 2026-05-04 19:12 | 36.94727 | -76.71804 | 36990 ft | 466 kts | 193° |
| 2026-05-04 19:13 | 36.88258 | -76.72677 | 36997 ft | 466 kts | 193° |
| 2026-05-04 19:13 | 36.81780 | -76.73550 | 37014 ft | 467 kts | 193° |
| 2026-05-04 19:14 | 36.75353 | -76.74412 | 37007 ft | 464 kts | 193° |
| 2026-05-04 19:14 | 36.68906 | -76.75279 | 37009 ft | 467 kts | 193° |
| 2026-05-04 19:15 | 36.62455 | -76.76143 | 37016 ft | 467 kts | 193° |
| 2026-05-04 19:15 | 36.55982 | -76.77007 | 37004 ft | 466 kts | 194° |
| 2026-05-04 19:16 | 36.49555 | -76.77864 | 37006 ft | 463 kts | 194° |
| 2026-05-04 19:16 | 36.43124 | -76.78722 | 36997 ft | 464 kts | 193° |
| 2026-05-04 19:17 | 36.36699 | -76.79576 | 36992 ft | 464 kts | 193° |
| 2026-05-04 19:17 | 36.30258 | -76.80431 | 36998 ft | 462 kts | 194° |
| 2026-05-04 19:18 | 36.23873 | -76.81278 | 37007 ft | 463 kts | 194° |
| 2026-05-04 19:18 | 36.17424 | -76.82132 | 37004 ft | 463 kts | 194° |
| 2026-05-04 19:19 | 36.11023 | -76.82978 | 37008 ft | 462 kts | 194° |
| 2026-05-04 19:19 | 36.04647 | -76.83819 | 37011 ft | 463 kts | 194° |
| 2026-05-04 19:20 | 35.98237 | -76.84663 | 37007 ft | 461 kts | 194° |
| 2026-05-04 19:20 | 35.91877 | -76.85566 | 37004 ft | 455 kts | 198° |
| 2026-05-04 19:21 | 35.85842 | -76.87672 | 37014 ft | 449 kts | 205° |
| 2026-05-04 19:21 | 35.79897 | -76.90029 | 37018 ft | 448 kts | 205° |
| 2026-05-04 19:22 | 35.73962 | -76.92378 | 37027 ft | 450 kts | 205° |
| 2026-05-04 19:22 | 35.67970 | -76.94742 | 37029 ft | 449 kts | 205° |
| 2026-05-04 19:23 | 35.62001 | -76.97092 | 37038 ft | 448 kts | 205° |
| 2026-05-04 19:23 | 35.56075 | -76.99423 | 37035 ft | 449 kts | 205° |
| 2026-05-04 19:24 | 35.50127 | -77.01756 | 37042 ft | 448 kts | 205° |
| 2026-05-04 19:24 | 35.44163 | -77.04093 | 37037 ft | 447 kts | 205° |
| 2026-05-04 19:25 | 35.38227 | -77.06416 | 37040 ft | 447 kts | 205° |
| 2026-05-04 19:25 | 35.32275 | -77.08740 | 37030 ft | 448 kts | 205° |
| 2026-05-04 19:26 | 35.26284 | -77.11078 | 37042 ft | 449 kts | 205° |
| 2026-05-04 19:26 | 35.20357 | -77.13386 | 37050 ft | 450 kts | 205° |
| 2026-05-04 19:27 | 35.14385 | -77.15707 | 37045 ft | 448 kts | 205° |
| 2026-05-04 19:27 | 35.08431 | -77.18019 | 37044 ft | 450 kts | 205° |
| 2026-05-04 19:28 | 35.02462 | -77.20332 | 37056 ft | 449 kts | 204° |
| 2026-05-04 19:28 | 34.96523 | -77.22629 | 37060 ft | 447 kts | 204° |
| 2026-05-04 19:29 | 34.90585 | -77.24925 | 37045 ft | 447 kts | 204° |
| 2026-05-04 19:29 | 34.84599 | -77.27235 | 37061 ft | 448 kts | 204° |
| 2026-05-04 19:30 | 34.78611 | -77.29542 | 37053 ft | 449 kts | 204° |
| 2026-05-04 19:30 | 34.72675 | -77.31825 | 37066 ft | 450 kts | 204° |
| 2026-05-04 19:31 | 34.66731 | -77.34107 | 37065 ft | 448 kts | 204° |
| 2026-05-04 19:31 | 34.60770 | -77.36394 | 37071 ft | 448 kts | 204° |
| 2026-05-04 19:32 | 34.54829 | -77.38668 | 37053 ft | 447 kts | 204° |
| 2026-05-04 19:32 | 34.48845 | -77.40894 | 37050 ft | 451 kts | 200° |
| 2026-05-04 19:33 | 34.42577 | -77.42234 | 37060 ft | 458 kts | 196° |
| 2026-05-04 19:33 | 34.36314 | -77.43458 | 37054 ft | 460 kts | 196° |
| 2026-05-04 19:34 | 34.29985 | -77.44694 | 37051 ft | 458 kts | 196° |
| 2026-05-04 19:34 | 34.23679 | -77.45924 | 37048 ft | 457 kts | 196° |
| 2026-05-04 19:35 | 34.17426 | -77.47142 | 37071 ft | 456 kts | 196° |
| 2026-05-04 19:35 | 34.11160 | -77.48362 | 37069 ft | 456 kts | 196° |
| 2026-05-04 19:36 | 34.04893 | -77.49580 | 37068 ft | 455 kts | 196° |
| 2026-05-04 19:36 | 33.98608 | -77.50800 | 37068 ft | 456 kts | 196° |
| 2026-05-04 19:37 | 33.92330 | -77.52016 | 37076 ft | 456 kts | 196° |
| 2026-05-04 19:37 | 33.86058 | -77.53230 | 37078 ft | 457 kts | 196° |
| 2026-05-04 19:38 | 33.79785 | -77.54442 | 37069 ft | 454 kts | 196° |
| 2026-05-04 19:38 | 33.73537 | -77.55647 | 37085 ft | 455 kts | 196° |
| 2026-05-04 19:39 | 33.67282 | -77.56852 | 37077 ft | 454 kts | 196° |
| 2026-05-04 19:39 | 33.61011 | -77.58059 | 37074 ft | 455 kts | 196° |
| 2026-05-04 19:40 | 33.54890 | -77.59722 | 37084 ft | 449 kts | 203° |
| 2026-05-04 19:40 | 33.48908 | -77.61823 | 37076 ft | 447 kts | 203° |
| 2026-05-04 19:41 | 33.42901 | -77.63930 | 37090 ft | 448 kts | 203° |
| 2026-05-04 19:41 | 33.36951 | -77.66012 | 37092 ft | 448 kts | 202° |
| 2026-05-04 19:42 | 33.30945 | -77.68109 | 37104 ft | 448 kts | 202° |
| 2026-05-04 19:42 | 33.24961 | -77.70194 | 37096 ft | 448 kts | 202° |
| 2026-05-04 19:43 | 33.18990 | -77.72272 | 37101 ft | 447 kts | 202° |
| 2026-05-04 19:43 | 33.12974 | -77.74363 | 37106 ft | 449 kts | 202° |
| 2026-05-04 19:44 | 33.06995 | -77.76437 | 37102 ft | 448 kts | 202° |
| 2026-05-04 19:44 | 33.00995 | -77.78516 | 37107 ft | 448 kts | 202° |
| 2026-05-04 19:45 | 32.95020 | -77.80582 | 37108 ft | 447 kts | 202° |
| 2026-05-04 19:45 | 32.89002 | -77.82661 | 37112 ft | 446 kts | 202° |
| 2026-05-04 19:46 | 32.83077 | -77.84705 | 37119 ft | 445 kts | 203° |
| 2026-05-04 19:46 | 32.77090 | -77.86768 | 37112 ft | 447 kts | 202° |
| 2026-05-04 19:47 | 32.71119 | -77.88821 | 37103 ft | 447 kts | 203° |
| 2026-05-04 19:47 | 32.65142 | -77.90860 | 37112 ft | 447 kts | 202° |
| 2026-05-04 19:48 | 32.59130 | -77.92806 | 37105 ft | 449 kts | 202° |
| 2026-05-04 19:48 | 32.53081 | -77.94762 | 37112 ft | 448 kts | 202° |
| 2026-05-04 19:49 | 32.47055 | -77.96710 | 37113 ft | 447 kts | 202° |
| 2026-05-04 19:49 | 32.41061 | -77.98648 | 37099 ft | 448 kts | 202° |
| 2026-05-04 19:50 | 32.35066 | -78.00583 | 37107 ft | 446 kts | 203° |
| 2026-05-04 19:50 | 32.29060 | -78.02520 | 37091 ft | 446 kts | 203° |
| 2026-05-04 19:51 | 32.23058 | -78.04454 | 37109 ft | 448 kts | 203° |
| 2026-05-04 19:51 | 32.17026 | -78.06394 | 37087 ft | 447 kts | 203° |
| 2026-05-04 19:52 | 32.11048 | -78.08315 | 37101 ft | 446 kts | 203° |
| 2026-05-04 19:52 | 32.05032 | -78.10245 | 37104 ft | 447 kts | 203° |
| 2026-05-04 19:53 | 31.99045 | -78.12162 | 37096 ft | 446 kts | 203° |
| 2026-05-04 19:53 | 31.93000 | -78.14097 | 37333 ft | 447 kts | 204° |
| 2026-05-04 19:53 | 31.89980 | -78.15063 | 37116 ft | 447 kts | 203° |
| 2026-05-04 19:54 | 31.86978 | -78.16019 | 37103 ft | 444 kts | 203° |
| 2026-05-04 19:54 | 31.81010 | -78.17925 | 37101 ft | 446 kts | 203° |
| 2026-05-04 19:55 | 31.75003 | -78.19839 | 37104 ft | 443 kts | 203° |
| 2026-05-04 19:55 | 31.69025 | -78.21743 | 37093 ft | 447 kts | 204° |
| 2026-05-04 19:56 | 31.63024 | -78.23648 | 37095 ft | 444 kts | 203° |
| 2026-05-04 19:56 | 31.57051 | -78.25545 | 37097 ft | 446 kts | 204° |
| 2026-05-04 19:57 | 31.51044 | -78.27449 | 37098 ft | 446 kts | 204° |
| 2026-05-04 19:57 | 31.45056 | -78.29361 | 37093 ft | 445 kts | 204° |
| 2026-05-04 19:58 | 31.39105 | -78.31363 | 37094 ft | 445 kts | 205° |
| 2026-05-04 19:58 | 31.33110 | -78.33376 | 37091 ft | 443 kts | 205° |
| 2026-05-04 19:59 | 31.27191 | -78.35359 | 37096 ft | 445 kts | 204° |
| 2026-05-04 19:59 | 31.21235 | -78.37350 | 37089 ft | 444 kts | 205° |
| 2026-05-04 20:00 | 31.15285 | -78.39336 | 37088 ft | 446 kts | 205° |
| 2026-05-04 20:00 | 31.09327 | -78.41319 | 37091 ft | 445 kts | 205° |
| 2026-05-04 20:01 | 31.03346 | -78.43309 | 37089 ft | 443 kts | 205° |
| 2026-05-04 20:01 | 30.97401 | -78.45285 | 37091 ft | 447 kts | 205° |
| 2026-05-04 20:02 | 30.91429 | -78.47266 | 37087 ft | 446 kts | 205° |
| 2026-05-04 20:02 | 30.85420 | -78.49255 | 37093 ft | 445 kts | 205° |
| 2026-05-04 20:03 | 30.79474 | -78.51223 | 37085 ft | 446 kts | 205° |
| 2026-05-04 20:03 | 30.73472 | -78.53207 | 37087 ft | 445 kts | 205° |
| 2026-05-04 20:04 | 30.67503 | -78.55177 | 37083 ft | 447 kts | 205° |
| 2026-05-04 20:04 | 30.61491 | -78.57158 | 37084 ft | 447 kts | 205° |
| 2026-05-04 20:05 | 30.55516 | -78.59126 | 37079 ft | 447 kts | 204° |
| 2026-05-04 20:05 | 30.49493 | -78.61105 | 37080 ft | 447 kts | 204° |
| 2026-05-04 20:06 | 30.43490 | -78.63076 | 37079 ft | 449 kts | 204° |
| 2026-05-04 20:06 | 30.37484 | -78.65045 | 37080 ft | 447 kts | 204° |
| 2026-05-04 20:07 | 30.31459 | -78.67020 | 37098 ft | 449 kts | 204° |
| 2026-05-04 20:07 | 30.25447 | -78.68985 | 37095 ft | 449 kts | 204° |
| 2026-05-04 20:08 | 30.19408 | -78.70958 | 37097 ft | 449 kts | 204° |
| 2026-05-04 20:08 | 30.13359 | -78.72931 | 37094 ft | 449 kts | 204° |
| 2026-05-04 20:09 | 30.07345 | -78.74891 | 37100 ft | 450 kts | 204° |
| 2026-05-04 20:09 | 30.01265 | -78.76869 | 37097 ft | 451 kts | 204° |
| 2026-05-04 20:10 | 29.95241 | -78.78826 | 37094 ft | 451 kts | 204° |
| 2026-05-04 20:10 | 29.89169 | -78.80796 | 37093 ft | 450 kts | 204° |
| 2026-05-04 20:11 | 29.83163 | -78.82743 | 37088 ft | 450 kts | 203° |
| 2026-05-04 20:11 | 29.77029 | -78.84454 | 37083 ft | 458 kts | 195° |
| 2026-05-04 20:12 | 29.70643 | -78.85339 | 37080 ft | 460 kts | 194° |
| 2026-05-04 20:12 | 29.64303 | -78.86189 | 37085 ft | 460 kts | 195° |
| 2026-05-04 20:13 | 29.57918 | -78.87046 | 37083 ft | 460 kts | 195° |
| 2026-05-04 20:13 | 29.51542 | -78.87903 | 37083 ft | 459 kts | 194° |
| 2026-05-04 20:14 | 29.45197 | -78.88756 | 37078 ft | 460 kts | 194° |
| 2026-05-04 20:14 | 29.38859 | -78.89606 | 37081 ft | 460 kts | 194° |
| 2026-05-04 20:15 | 29.32450 | -78.90466 | 37073 ft | 460 kts | 194° |
| 2026-05-04 20:15 | 29.26092 | -78.91316 | 37076 ft | 459 kts | 194° |
| 2026-05-04 20:16 | 29.19731 | -78.92168 | 37072 ft | 459 kts | 194° |
| 2026-05-04 20:16 | 29.13384 | -78.93015 | 37070 ft | 460 kts | 194° |
| 2026-05-04 20:17 | 29.07028 | -78.93864 | 37069 ft | 459 kts | 194° |
| 2026-05-04 20:17 | 29.00658 | -78.94713 | 37071 ft | 460 kts | 194° |
| 2026-05-04 20:18 | 28.94330 | -78.95554 | 37070 ft | 457 kts | 194° |
| 2026-05-04 20:18 | 28.87976 | -78.96400 | 37068 ft | 459 kts | 194° |
| 2026-05-04 20:19 | 28.81619 | -78.97243 | 37065 ft | 456 kts | 194° |
| 2026-05-04 20:19 | 28.75303 | -78.98080 | 37064 ft | 457 kts | 194° |
| 2026-05-04 20:20 | 28.68973 | -78.98920 | 37065 ft | 457 kts | 194° |
| 2026-05-04 20:20 | 28.62645 | -78.99756 | 37062 ft | 456 kts | 194° |
| 2026-05-04 20:21 | 28.56311 | -79.00594 | 37063 ft | 458 kts | 195° |
| 2026-05-04 20:21 | 28.46843 | -79.01842 | 37057 ft | 457 kts | 195° |
| 2026-05-04 20:22 | 28.40518 | -79.02676 | 37055 ft | 454 kts | 194° |
| 2026-05-04 20:22 | 28.34220 | -79.03651 | 37049 ft | 449 kts | 201° |
| 2026-05-04 20:23 | 28.28320 | -79.05715 | 37052 ft | 442 kts | 206° |
| 2026-05-04 20:23 | 28.22459 | -79.07907 | 37054 ft | 443 kts | 205° |
| 2026-05-04 20:24 | 28.16621 | -79.10085 | 37049 ft | 440 kts | 205° |
| 2026-05-04 20:24 | 28.10776 | -79.12264 | 37044 ft | 441 kts | 205° |
| 2026-05-04 20:25 | 28.04908 | -79.14448 | 37044 ft | 442 kts | 205° |
| 2026-05-04 20:25 | 28.01353 | -79.15768 | 37043 ft | 441 kts | 206° |
| 2026-05-04 20:26 | 28.00226 | -79.16187 | 37044 ft | 441 kts | 205° |
| 2026-05-04 20:27 | 27.94389 | -79.18353 | 37041 ft | 440 kts | 206° |
| 2026-05-04 20:27 | 27.88533 | -79.20525 | 37037 ft | 441 kts | 206° |
| 2026-05-04 20:28 | 27.82692 | -79.22688 | 37036 ft | 439 kts | 206° |
| 2026-05-04 20:28 | 27.76871 | -79.24842 | 37034 ft | 440 kts | 206° |
| 2026-05-04 20:29 | 27.71072 | -79.26985 | 37020 ft | 440 kts | 206° |
| 2026-05-04 20:29 | 27.65226 | -79.29144 | 37024 ft | 442 kts | 206° |
| 2026-05-04 20:30 | 27.59422 | -79.31282 | 37020 ft | 438 kts | 206° |
| 2026-05-04 20:30 | 27.53589 | -79.33432 | 37020 ft | 441 kts | 205° |
| 2026-05-04 20:31 | 27.47751 | -79.35578 | 37011 ft | 440 kts | 206° |
| 2026-05-04 20:31 | 27.41921 | -79.37721 | 37007 ft | 442 kts | 206° |
| 2026-05-04 20:32 | 27.35978 | -79.39909 | 37013 ft | 461 kts | 205° |
| 2026-05-04 20:32 | 27.29780 | -79.42184 | 37005 ft | 472 kts | 205° |
| 2026-05-04 20:33 | 27.23496 | -79.44480 | 36993 ft | 471 kts | 205° |
| 2026-05-04 20:33 | 27.17283 | -79.46751 | 37001 ft | 472 kts | 205° |
| 2026-05-04 20:34 | 27.11009 | -79.49042 | 36999 ft | 471 kts | 205° |
| 2026-05-04 20:34 | 27.04750 | -79.51324 | 36986 ft | 472 kts | 205° |
| 2026-05-04 20:35 | 26.98538 | -79.53588 | 36991 ft | 470 kts | 205° |
| 2026-05-04 20:35 | 26.92278 | -79.55867 | 36972 ft | 470 kts | 205° |
| 2026-05-04 20:36 | 26.86035 | -79.58132 | 36988 ft | 470 kts | 205° |
| 2026-05-04 20:36 | 26.79808 | -79.60374 | 36984 ft | 459 kts | 205° |
| 2026-05-04 20:37 | 26.73791 | -79.62539 | 36982 ft | 450 kts | 205° |
| 2026-05-04 20:37 | 26.67801 | -79.64697 | 36979 ft | 451 kts | 206° |
| 2026-05-04 20:38 | 26.61818 | -79.66849 | 37001 ft | 450 kts | 205° |
| 2026-05-04 20:38 | 26.55786 | -79.68964 | 36992 ft | 453 kts | 205° |
| 2026-05-04 20:39 | 26.49787 | -79.71092 | 36989 ft | 448 kts | 208° |
| 2026-05-04 20:39 | 26.44524 | -79.74483 | 36991 ft | 433 kts | 226° |
| 2026-05-04 20:40 | 26.40305 | -79.79247 | 36988 ft | 430 kts | 231° |
| 2026-05-04 20:40 | 26.36601 | -79.84390 | 36993 ft | 415 kts | 238° |
| 2026-05-04 20:41 | 26.34978 | -79.86966 | 36994 ft | 399 kts | 238° |
| 2026-05-04 20:41 | 26.33409 | -79.89462 | 36984 ft | 383 kts | 238° |
| 2026-05-04 20:41 | 26.31914 | -79.91843 | 36990 ft | 370 kts | 239° |
| 2026-05-04 20:41 | 26.30427 | -79.94216 | 36999 ft | 374 kts | 239° |
| 2026-05-04 20:42 | 26.27307 | -79.98946 | 36986 ft | 382 kts | 231° |
| 2026-05-04 20:42 | 26.22930 | -80.02426 | 36985 ft | 396 kts | 211° |
| 2026-05-04 20:43 | 26.20258 | -80.03430 | 36984 ft | 410 kts | 202° |
| 2026-05-04 20:43 | 26.17448 | -80.04085 | 36987 ft | 412 kts | 200° |
| 2026-05-04 20:43 | 26.11822 | -80.05328 | 36981 ft | 410 kts | 200° |
| 2026-05-04 20:44 | 26.06211 | -80.06587 | 36982 ft | 409 kts | 201° |
| 2026-05-04 20:44 | 26.00663 | -80.08015 | 36982 ft | 405 kts | 202° |
| 2026-05-04 20:45 | 25.95293 | -80.09504 | 36915 ft | 382 kts | 208° |
| 2026-05-04 20:45 | 25.92916 | -80.10674 | 36276 ft | 366 kts | 219° |
| 2026-05-04 20:45 | 25.90865 | -80.12324 | 35182 ft | 357 kts | 230° |
| 2026-05-04 20:46 | 25.89237 | -80.14339 | 34121 ft | 350 kts | 243° |
| 2026-05-04 20:46 | 25.88228 | -80.16737 | 33196 ft | 340 kts | 258° |
| 2026-05-04 20:46 | 25.87899 | -80.19301 | 32414 ft | 333 kts | 268° |
| 2026-05-04 20:46 | 25.87790 | -80.21819 | 31691 ft | 329 kts | 268° |
| 2026-05-04 20:47 | 25.87698 | -80.24342 | 30975 ft | 324 kts | 269° |
| 2026-05-04 20:47 | 25.87615 | -80.26827 | 30164 ft | 323 kts | 269° |
| 2026-05-04 20:47 | 25.87884 | -80.29265 | 29290 ft | 324 kts | 288° |
| 2026-05-04 20:47 | 25.88794 | -80.31573 | 28508 ft | 324 kts | 294° |
| 2026-05-04 20:48 | 25.89835 | -80.33749 | 27867 ft | 320 kts | 294° |
| 2026-05-04 20:48 | 25.90888 | -80.35902 | 27004 ft | 321 kts | 295° |
| 2026-05-04 20:48 | 25.91946 | -80.38070 | 26279 ft | 317 kts | 294° |
| 2026-05-04 20:48 | 25.92985 | -80.40204 | 25638 ft | 311 kts | 294° |
| 2026-05-04 20:49 | 25.93877 | -80.42045 | 20142 ft | 444 kts | 294° |
| 2026-05-04 20:49 | 25.94818 | -80.44002 | 9662 ft | 580 kts | 295° |
| 2026-05-04 20:49 | 25.95451 | -80.45345 | 1196 ft | 599 kts | 300° |
| 2026-05-04 20:49 | 25.96341 | -80.47068 | 1049 ft | 520 kts | 301° |
| 2026-05-04 20:50 | 25.97895 | -80.50186 | 1339 ft | 401 kts | 300° |
| 2026-05-04 20:50 | 25.99086 | -80.52686 | 1896 ft | 340 kts | 300° |
| 2026-05-04 20:50 | 26.00055 | -80.54936 | 1801 ft | 317 kts | 296° |
| 2026-05-04 20:50 | 26.00746 | -80.57261 | 1209 ft | 317 kts | 279° |
| 2026-05-04 20:51 | 26.00552 | -80.59634 | 1222 ft | 298 kts | 252° |
| 2026-05-04 20:51 | 25.99609 | -80.61553 | 1387 ft | 276 kts | 230° |
| 2026-05-04 20:51 | 25.98206 | -80.62873 | 1563 ft | 251 kts | 208° |
| 2026-05-04 20:51 | 25.96644 | -80.63404 | 1727 ft | 221 kts | 179° |
| 2026-05-04 20:52 | 25.95238 | -80.63168 | 1877 ft | 189 kts | 154° |
| 2026-05-04 20:52 | 25.94197 | -80.62489 | 2040 ft | 155 kts | 133° |
| 2026-05-04 20:52 | 25.93539 | -80.61671 | 2187 ft | 145 kts | 117° |
| 2026-05-04 20:52 | 25.93051 | -80.60561 | 2462 ft | 179 kts | 109° |
| 2026-05-04 20:53 | 25.92547 | -80.59149 | 2740 ft | 209 kts | 109° |
| 2026-05-04 20:53 | 25.91996 | -80.57610 | 2958 ft | 219 kts | 109° |
| 2026-05-04 20:53 | 25.91434 | -80.56046 | 2982 ft | 216 kts | 109° |
| 2026-05-04 20:53 | 25.90870 | -80.54481 | 2971 ft | 216 kts | 109° |
| 2026-05-04 20:54 | 25.90353 | -80.52914 | 2960 ft | 213 kts | 98° |
| 2026-05-04 20:54 | 25.90314 | -80.51296 | 2969 ft | 213 kts | 93° |
| 2026-05-04 20:54 | 25.89937 | -80.49730 | 2975 ft | 204 kts | 109° |
| 2026-05-04 20:54 | 25.89327 | -80.48364 | 2950 ft | 187 kts | 116° |
| 2026-05-04 20:55 | 25.88693 | -80.47167 | 2952 ft | 177 kts | 117° |
| 2026-05-04 20:55 | 25.88068 | -80.45996 | 2955 ft | 174 kts | 116° |
| 2026-05-04 20:55 | 25.87455 | -80.44807 | 2853 ft | 179 kts | 116° |
| 2026-05-04 20:55 | 25.86845 | -80.43621 | 2637 ft | 175 kts | 116° |
| 2026-05-04 20:56 | 25.86246 | -80.42460 | 2416 ft | 171 kts | 116° |
| 2026-05-04 20:56 | 25.85661 | -80.41326 | 2205 ft | 167 kts | 116° |
| 2026-05-04 20:56 | 25.85075 | -80.40211 | 1964 ft | 165 kts | 115° |
| 2026-05-04 20:56 | 25.84531 | -80.39104 | 1715 ft | 165 kts | 114° |
| 2026-05-04 20:57 | 25.83982 | -80.37983 | 1475 ft | 160 kts | 114° |
| 2026-05-04 20:57 | 25.83441 | -80.36946 | 1210 ft | 153 kts | 117° |
| 2026-05-04 20:57 | 25.82888 | -80.35986 | 972 ft | 140 kts | 118° |
| 2026-05-04 20:57 | 25.82367 | -80.35091 | 955 ft | 139 kts | 118° |
| 2026-05-04 20:58 | 25.81827 | -80.34179 | 853 ft | 139 kts | 115° |
| 2026-05-04 20:58 | 25.81358 | -80.33253 | 757 ft | 137 kts | 111° |
| 2026-05-04 20:58 | 25.80954 | -80.32290 | 606 ft | 139 kts | 111° |
| 2026-05-04 20:58 | 25.80496 | -80.31345 | 328 ft | 135 kts | 116° |
| 2026-05-04 20:59 | 25.80050 | -80.30476 | 80 ft | 127 kts | 115° |
| 2026-05-04 20:59 | 25.79653 | -80.29683 | 20 ft | 101 kts | 118° |
| 2026-05-04 20:59 | 25.79366 | -80.29126 | 20 ft | 66 kts | 119° |
| 2026-05-04 20:59 | 25.79198 | -80.28797 | 20 ft | 29 kts | 120° |
| 2026-05-04 21:00 | 25.79109 | -80.28622 | 20 ft | 24 kts | 119° |
| 2026-05-04 21:00 | 25.79024 | -80.28454 | 20 ft | 25 kts | 117° |
| 2026-05-04 21:00 | 25.78974 | -80.28266 | 20 ft | 25 kts | 92° |
| 2026-05-04 21:00 | 25.78985 | -80.28065 | 20 ft | 25 kts | 99° |
| 2026-05-04 21:01 | 25.78915 | -80.27880 | 20 ft | 26 kts | 120° |
| 2026-05-04 21:01 | 25.78884 | -80.27704 | 20 ft | 0 kts | 88° |